createdAt,value
2022-12-22T00:05:01.823Z,56.59754
2022-12-22T00:10:03.442Z,54.6597
2022-12-22T00:15:05.101Z,53.29012
2022-12-22T00:20:06.921Z,54.42849
2022-12-22T00:25:08.567Z,52.00877
2022-12-22T00:30:10.671Z,52.41934
2022-12-22T00:35:12.346Z,55.09659
2022-12-22T00:40:14.003Z,54.27753
2022-12-22T00:45:15.596Z,56.43902
2022-12-22T00:50:17.550Z,53.22841
2022-12-22T00:55:19.201Z,53.66072
2022-12-22T01:00:20.986Z,53.78055
2022-12-22T01:05:22.638Z,53.2851
2022-12-22T01:10:24.298Z,53.5025
2022-12-22T01:15:26.031Z,56.39323
2022-12-22T01:20:27.872Z,55.55161
2022-12-22T01:25:29.510Z,55.00657
2022-12-22T01:30:31.221Z,54.04788
2022-12-22T01:35:32.904Z,52.81052
2022-12-22T01:40:34.552Z,55.61681
2022-12-22T01:45:36.206Z,55.99099
2022-12-22T01:50:37.848Z,54.23803
2022-12-22T01:55:39.553Z,54.35099
2022-12-22T02:00:41.191Z,53.42747
2022-12-22T02:05:42.803Z,51.83281
2022-12-22T02:10:44.551Z,52.79138
2022-12-22T02:15:46.274Z,52.92202
2022-12-22T02:20:47.936Z,52.40607
2022-12-22T02:25:49.616Z,53.24965
2022-12-22T02:30:51.311Z,53.40012
2022-12-22T02:35:52.996Z,53.92371
2022-12-22T02:40:54.777Z,57.5991
2022-12-22T02:45:56.519Z,55.14243
2022-12-22T02:50:58.136Z,57.34937
2022-12-22T02:55:59.891Z,56.03635
2022-12-22T03:01:01.698Z,54.07733
2022-12-22T03:06:03.705Z,53.75587
2022-12-22T03:11:05.517Z,52.17027
2022-12-22T03:16:07.271Z,53.79918
2022-12-22T03:21:08.954Z,53.84529
2022-12-22T03:26:10.716Z,55.3265
2022-12-22T03:31:12.532Z,54.09325
2022-12-22T03:36:14.319Z,55.03812
2022-12-22T03:41:15.973Z,54.89191
2022-12-22T03:46:17.799Z,59.71025
2022-12-22T03:51:19.645Z,55.04062
2022-12-22T03:56:21.322Z,56.88425
2022-12-22T04:01:23.047Z,56.72895
2022-12-22T04:06:24.891Z,54.96147
2022-12-22T04:11:26.575Z,54.45343
2022-12-22T04:16:28.272Z,55.49553
2022-12-22T04:21:30.008Z,60.30363
2022-12-22T04:26:31.666Z,55.04316
2022-12-22T04:31:33.414Z,57.99662
2022-12-22T04:36:35.290Z,59.16006
2022-12-22T04:41:36.956Z,60.79186
2022-12-22T04:46:38.718Z,57.82948
2022-12-22T04:51:40.317Z,58.48782
2022-12-22T04:56:41.965Z,59.55069
2022-12-22T05:01:43.784Z,60.85344
2022-12-22T05:06:45.557Z,58.47819
2022-12-22T05:11:47.195Z,60.57622
2022-12-22T05:16:49.646Z,62.78795
2022-12-22T05:21:51.350Z,60.50085
2022-12-22T05:26:52.968Z,59.98022
2022-12-22T05:31:54.646Z,60.74783
2022-12-22T05:36:56.285Z,59.04162
2022-12-22T05:41:57.948Z,60.69431
2022-12-22T05:46:59.629Z,60.36969
2022-12-22T05:52:01.596Z,59.21717
2022-12-22T05:57:03.230Z,58.96378
2022-12-22T06:02:04.976Z,61.21993
2022-12-22T06:07:06.786Z,57.29559
2022-12-22T06:12:08.443Z,58.61901
2022-12-22T06:17:10.152Z,59.32333
2022-12-22T06:22:12.047Z,57.84971
2022-12-22T06:27:13.681Z,60.25576
2022-12-22T06:32:15.328Z,56.55596
2022-12-22T06:37:16.986Z,59.98321
2022-12-22T06:42:18.960Z,56.4691
2022-12-22T06:47:20.701Z,55.44687
2022-12-22T06:52:22.346Z,57.53992
2022-12-22T06:57:24.038Z,54.26638
2022-12-22T07:02:26.049Z,53.7484
2022-12-22T07:07:27.886Z,54.77063
2022-12-22T07:12:29.830Z,54.50566
2022-12-22T07:17:31.460Z,55.23556
2022-12-22T07:22:33.284Z,54.86506
2022-12-22T07:27:34.917Z,54.67129
2022-12-22T07:32:36.813Z,53.90177
2022-12-22T07:37:38.481Z,55.39903
2022-12-22T07:42:40.213Z,54.3943
2022-12-22T07:47:42.004Z,54.72996
2022-12-22T07:52:43.620Z,53.707
2022-12-22T07:57:45.248Z,54.41097
2022-12-22T08:02:47.107Z,54.06497
2022-12-22T08:07:48.827Z,53.7853
2022-12-22T08:12:50.642Z,54.03429
2022-12-22T08:17:52.408Z,54.68023
2022-12-22T08:22:53.965Z,54.52061
2022-12-22T08:27:55.701Z,54.7623
2022-12-22T08:32:57.464Z,54.2163
2022-12-22T08:37:59.344Z,55.10528
2022-12-22T08:43:00.987Z,56.66541
2022-12-22T08:48:02.653Z,57.08788
2022-12-22T08:53:04.550Z,56.45379
2022-12-22T08:58:06.217Z,54.44107
2022-12-22T09:03:07.960Z,55.03415
2022-12-22T09:08:09.830Z,54.36436
2022-12-22T09:13:11.598Z,54.3027
2022-12-22T09:18:13.264Z,55.80906
2022-12-22T09:23:15.287Z,54.87666
2022-12-22T09:28:16.956Z,54.53702
2022-12-22T09:33:18.615Z,55.0497
2022-12-22T09:38:20.245Z,55.32904
2022-12-22T09:43:21.889Z,55.47181
2022-12-22T09:48:23.523Z,54.59873
2022-12-22T09:53:25.207Z,56.21893
2022-12-22T09:58:27.001Z,56.34196
2022-12-22T10:03:28.894Z,55.55245
2022-12-22T10:08:30.648Z,57.00247
2022-12-22T10:13:32.328Z,57.77912
2022-12-22T10:18:33.955Z,55.97836
2022-12-22T10:23:35.587Z,55.60849
2022-12-22T10:28:37.472Z,55.41029
2022-12-22T10:33:45.947Z,53.96142
2022-12-22T10:38:48.808Z,54.18654
2022-12-22T10:43:50.665Z,56.22401
2022-12-22T10:48:52.338Z,55.26039
2022-12-22T10:53:54.006Z,52.88625
2022-12-22T10:58:55.759Z,55.91247
2022-12-22T11:03:57.459Z,54.65143
2022-12-22T11:09:31.417Z,52.18004
2022-12-22T11:14:34.096Z,52.36902
2022-12-22T11:19:36.013Z,56.64739
2022-12-22T11:24:37.654Z,55.82678
2022-12-22T11:29:39.311Z,52.74639
2022-12-22T11:34:41.305Z,53.07363
2022-12-22T11:39:42.906Z,53.86688
2022-12-22T11:44:44.555Z,52.69868
2022-12-22T11:49:46.310Z,51.69566
2022-12-22T11:54:47.963Z,51.49007
2022-12-22T11:59:50.129Z,53.57742
2022-12-22T12:04:51.821Z,53.51665
2022-12-22T12:09:53.479Z,54.44708
2022-12-22T12:14:55.192Z,55.9086
2022-12-22T12:19:56.838Z,54.33516
2022-12-22T12:24:58.508Z,54.96652
2022-12-22T12:30:35.779Z,54.16855
2022-12-22T12:35:39.151Z,57.14213
2022-12-22T12:40:40.835Z,55.25434
2022-12-22T12:45:42.585Z,55.517
2022-12-22T12:50:44.215Z,55.69542
2022-12-22T12:55:45.925Z,54.53469
2022-12-22T13:00:51.178Z,53.68508
2022-12-22T13:05:55.710Z,52.39333
2022-12-22T13:10:57.476Z,51.42729
2022-12-22T13:15:59.237Z,53.65064
2022-12-22T13:21:33.821Z,55.44489
2022-12-22T13:26:52.323Z,55.91137
2022-12-22T13:31:54.397Z,56.17543
2022-12-22T13:36:56.108Z,53.385
2022-12-22T13:41:57.787Z,54.79408
2022-12-22T13:46:59.885Z,55.05412
2022-12-22T13:52:05.232Z,53.0081
2022-12-22T13:57:07.649Z,52.18331
2022-12-22T14:02:09.330Z,53.24533
2022-12-22T14:07:11.971Z,54.95133
2022-12-22T14:12:13.674Z,54.33062
2022-12-22T14:17:15.317Z,53.88391
2022-12-22T14:22:16.996Z,52.71409
2022-12-22T14:27:18.739Z,52.66671
2022-12-22T14:32:20.631Z,53.36648
2022-12-22T14:37:25.720Z,53.43881
2022-12-22T14:42:32.635Z,54.53694
2022-12-22T14:47:34.323Z,55.47944
2022-12-22T14:52:36.070Z,53.41171
2022-12-22T14:57:37.776Z,54.94199
2022-12-22T15:02:40.506Z,56.44894
2022-12-22T15:12:55.807Z,53.72045
2022-12-22T15:17:57.486Z,55.21031
2022-12-22T15:22:59.367Z,55.1195
2022-12-22T15:28:01.031Z,56.35519
2022-12-22T15:33:02.854Z,56.56309
2022-12-22T15:38:04.636Z,56.2649
2022-12-22T15:43:09.985Z,54.52326
2022-12-22T15:48:19.322Z,56.58622
2022-12-22T15:53:20.992Z,55.45034
2022-12-22T15:58:22.655Z,55.90917
2022-12-22T16:03:24.707Z,55.14543
2022-12-22T16:08:26.550Z,55.09627
2022-12-22T16:13:28.809Z,54.10109
2022-12-22T16:18:30.833Z,53.67765
2022-12-22T16:23:32.578Z,53.58467
2022-12-22T16:28:34.274Z,55.34499
2022-12-22T16:33:36.011Z,54.09139
2022-12-22T16:38:37.700Z,53.40009
2022-12-22T16:50:51.114Z,49.07607
2022-12-22T16:55:52.749Z,48.48962
2022-12-22T17:00:54.443Z,47.93025
2022-12-22T17:05:56.182Z,48.20797
2022-12-22T17:10:58.069Z,48.26142
2022-12-22T17:15:59.874Z,46.61319
2022-12-22T17:21:01.564Z,44.80336
2022-12-22T17:26:03.209Z,42.99899
2022-12-22T17:31:05.003Z,43.83016
2022-12-22T17:36:06.777Z,43.03932
2022-12-22T17:41:08.389Z,44.7762
2022-12-22T17:46:10.128Z,44.9571
2022-12-22T17:51:11.854Z,45.49061
2022-12-22T17:56:13.554Z,48.01309
2022-12-22T18:01:15.443Z,47.6529
2022-12-22T18:06:18.279Z,50.00934
2022-12-22T18:11:20.109Z,49.86087
2022-12-22T18:16:22.004Z,50.36417
2022-12-22T18:21:23.785Z,49.30721
2022-12-22T18:26:25.503Z,50.52572
2022-12-22T18:31:27.237Z,49.05235
2022-12-22T18:36:28.965Z,49.49228
2022-12-22T18:41:30.602Z,49.66126
2022-12-22T18:46:32.335Z,50.24262
2022-12-22T18:51:34.086Z,54.4009
2022-12-22T18:56:35.858Z,55.53482
2022-12-22T19:01:37.660Z,51.62574
2022-12-22T19:06:39.536Z,48.62474
2022-12-22T19:11:41.441Z,52.78888
2022-12-22T19:16:43.330Z,53.26964
2022-12-22T19:21:45.014Z,54.19368
2022-12-22T19:26:46.874Z,54.74204
2022-12-22T19:31:48.769Z,53.50818
2022-12-22T19:36:50.450Z,52.67533
2022-12-22T19:41:52.195Z,51.96657
2022-12-22T19:46:54.150Z,49.27426
2022-12-22T19:51:55.859Z,48.03215
2022-12-22T19:56:57.529Z,47.77154
2022-12-22T20:01:59.394Z,45.21343
2022-12-22T20:07:01.195Z,47.42934
2022-12-22T20:12:02.962Z,48.85079
2022-12-22T20:17:04.678Z,48.14638
2022-12-22T20:22:06.397Z,49.73856
2022-12-22T20:27:07.997Z,50.61122
2022-12-22T20:32:09.701Z,49.14959
2022-12-22T20:37:11.404Z,52.58378
2022-12-22T20:42:13.044Z,49.22621
2022-12-22T20:47:21.803Z,53.02375
2022-12-22T20:52:24.124Z,50.61696
2022-12-22T20:57:25.799Z,52.06689
2022-12-22T21:02:28.194Z,48.64802
2022-12-22T21:07:30.427Z,49.34413
2022-12-22T21:12:32.143Z,48.30732
2022-12-22T21:17:33.873Z,47.62809
2022-12-22T21:22:35.891Z,46.51432
2022-12-22T21:27:37.560Z,50.16961
2022-12-22T21:32:39.224Z,48.16275
2022-12-22T21:37:40.909Z,50.0489
2022-12-22T21:42:42.542Z,50.57709
2022-12-22T21:47:44.223Z,50.17644
2022-12-22T21:52:45.871Z,49.00787
2022-12-22T21:57:47.510Z,47.06184
2022-12-22T22:02:49.363Z,49.25947
2022-12-22T22:07:51.140Z,47.62376
2022-12-22T22:12:52.821Z,48.95219
2022-12-22T22:17:54.531Z,48.21497
2022-12-22T22:22:56.263Z,47.01804
2022-12-22T22:27:58.038Z,48.5019
2022-12-22T22:32:59.773Z,48.32799
2022-12-22T22:38:01.465Z,49.62246
2022-12-22T22:43:03.108Z,51.16038
2022-12-22T22:48:10.508Z,50.93914
2022-12-22T22:53:12.877Z,52.49563
2022-12-22T22:58:14.668Z,52.0211
2022-12-22T23:03:16.844Z,53.24266
2022-12-22T23:08:18.749Z,53.77354
2022-12-22T23:13:20.566Z,55.30563
2022-12-22T23:18:22.283Z,53.69934
2022-12-22T23:23:23.901Z,50.40268
2022-12-22T23:28:25.534Z,47.01355
2022-12-22T23:33:27.185Z,48.1054
2022-12-22T23:38:28.845Z,49.81872
2022-12-22T23:43:30.501Z,50.09588
2022-12-22T23:48:32.166Z,51.28625
2022-12-22T23:53:33.881Z,50.18016
2022-12-22T23:58:35.569Z,50.78624
